createdAt,value
2022-12-11T00:00:55.896Z,7.60
2022-12-11T00:03:59.017Z,8.70
2022-12-11T00:07:02.380Z,8.30
2022-12-11T00:10:06.172Z,7.87
2022-12-11T00:13:09.232Z,8.63
2022-12-11T00:16:13.056Z,9.20
2022-12-11T00:19:18.932Z,8.63
2022-12-11T00:22:21.858Z,8.40
2022-12-11T00:25:24.353Z,8.80
2022-12-11T00:28:28.075Z,8.52
2022-12-11T00:31:31.950Z,8.33
2022-12-11T00:34:35.146Z,9.27
2022-12-11T00:37:38.667Z,8.52
2022-12-11T00:40:50.625Z,8.35
2022-12-11T00:43:53.586Z,8.65
2022-12-11T00:46:56.353Z,7.53
2022-12-11T00:49:59.318Z,8.63
2022-12-11T00:53:04.737Z,8.48
2022-12-11T00:56:18.720Z,7.87
2022-12-11T00:59:23.736Z,8.98
2022-12-11T01:02:30.742Z,8.93
2022-12-11T01:05:33.941Z,8.70
2022-12-11T01:08:39.020Z,8.65
2022-12-11T01:11:43.022Z,8.63
2022-12-11T01:14:45.656Z,8.13
2022-12-11T01:17:49.051Z,7.53
2022-12-11T01:20:51.920Z,7.93
2022-12-11T01:23:54.735Z,7.53
2022-12-11T01:26:57.354Z,7.20
2022-12-11T01:30:08.524Z,7.78
2022-12-11T01:33:11.988Z,6.60
2022-12-11T01:36:19.997Z,6.43
2022-12-11T01:39:22.853Z,7.80
2022-12-11T01:42:26.522Z,7.62
2022-12-11T01:45:47.620Z,7.55
2022-12-11T01:48:50.937Z,7.57
2022-12-11T01:52:01.058Z,7.07
2022-12-11T01:55:04.516Z,7.03
2022-12-11T01:58:10.302Z,7.05
2022-12-11T02:01:21.979Z,6.65
2022-12-11T02:04:26.109Z,7.10
2022-12-11T02:07:34.860Z,7.53
2022-12-11T02:10:50.396Z,7.37
2022-12-11T02:14:03.890Z,5.97
2022-12-11T02:17:16.353Z,7.55
2022-12-11T02:20:27.099Z,6.60
2022-12-11T02:23:39.101Z,6.47
2022-12-11T02:27:04.053Z,5.97
2022-12-11T02:30:07.504Z,6.25
2022-12-11T02:33:12.895Z,6.68
2022-12-11T02:36:18.230Z,6.23
2022-12-11T02:39:24.779Z,5.95
2022-12-11T02:42:31.396Z,5.78
2022-12-11T02:45:35.626Z,5.32
2022-12-11T02:48:41.731Z,5.70
2022-12-11T02:51:44.640Z,5.87
2022-12-11T02:54:49.575Z,6.62
2022-12-11T02:58:09.773Z,6.32
2022-12-11T03:01:12.798Z,6.30
2022-12-11T03:04:16.161Z,6.30
2022-12-11T03:07:25.378Z,7.03
2022-12-11T03:10:28.279Z,6.28
2022-12-11T03:13:32.068Z,6.90
2022-12-11T03:16:42.856Z,6.95
2022-12-11T03:20:06.567Z,6.40
2022-12-11T03:23:17.688Z,5.90
2022-12-11T03:26:22.945Z,5.78
2022-12-11T03:29:36.765Z,6.18
2022-12-11T03:32:51.864Z,5.90
2022-12-11T03:35:59.555Z,5.97
2022-12-11T03:39:12.947Z,5.33
2022-12-11T03:42:19.040Z,5.70
2022-12-11T03:45:23.589Z,5.15
2022-12-11T03:48:31.088Z,5.75
2022-12-11T03:51:36.349Z,5.90
2022-12-11T03:54:42.111Z,5.73
2022-12-11T03:57:45.356Z,5.00
2022-12-11T04:00:48.201Z,5.90
2022-12-11T04:03:51.240Z,5.00
2022-12-11T04:06:54.580Z,5.37
2022-12-11T04:09:57.679Z,5.80
2022-12-11T04:13:00.188Z,5.62
2022-12-11T04:16:02.947Z,6.35
2022-12-11T04:19:24.883Z,6.28
2022-12-11T04:22:46.994Z,7.32
2022-12-11T04:25:50.013Z,5.57
2022-12-11T04:28:53.229Z,7.43
2022-12-11T04:31:55.682Z,7.07
2022-12-11T04:34:58.318Z,5.40
2022-12-11T04:38:01.625Z,5.87
2022-12-11T04:41:14.427Z,6.27
2022-12-11T04:44:17.972Z,7.75
2022-12-11T04:47:24.000Z,6.70
2022-12-11T04:50:27.462Z,6.68
2022-12-11T04:53:30.789Z,6.62
2022-12-11T04:56:33.622Z,8.10
2022-12-11T04:59:38.357Z,7.70
2022-12-11T05:02:42.440Z,5.90
2022-12-11T05:05:53.956Z,7.03
2022-12-11T05:08:56.395Z,6.18
2022-12-11T05:11:59.397Z,7.07
2022-12-11T05:15:02.606Z,5.95
2022-12-11T05:18:06.234Z,7.00
2022-12-11T05:21:12.544Z,6.82
2022-12-11T05:24:15.638Z,6.22
2022-12-11T05:27:19.077Z,5.97
2022-12-11T05:30:21.925Z,6.57
2022-12-11T05:33:24.951Z,6.47
2022-12-11T05:36:33.435Z,6.35
2022-12-11T05:39:43.141Z,6.22
2022-12-11T05:42:46.724Z,5.57
2022-12-11T05:45:49.587Z,5.75
2022-12-11T05:48:56.678Z,5.70
2022-12-11T05:52:02.400Z,6.25
2022-12-11T05:55:06.855Z,4.80
2022-12-11T05:58:09.800Z,5.07
2022-12-11T06:01:19.005Z,5.85
2022-12-11T06:04:22.683Z,5.75
2022-12-11T06:07:26.672Z,5.90
2022-12-11T06:10:30.118Z,5.20
2022-12-11T06:13:33.743Z,5.13
2022-12-11T06:16:40.329Z,4.82
2022-12-11T06:19:49.204Z,3.97
2022-12-11T06:22:52.794Z,5.68
2022-12-11T06:25:56.652Z,6.10
2022-12-11T06:29:00.588Z,5.17
2022-12-11T06:32:07.158Z,5.70
2022-12-11T06:35:13.916Z,5.07
2022-12-11T06:38:21.141Z,5.18
2022-12-11T06:41:26.301Z,5.35
2022-12-11T06:44:30.905Z,4.83
2022-12-11T06:47:37.186Z,5.25
2022-12-11T06:50:40.458Z,5.03
2022-12-11T06:53:44.592Z,5.75
2022-12-11T06:56:47.820Z,5.78
2022-12-11T06:59:51.022Z,6.07
2022-12-11T07:03:04.164Z,5.45
2022-12-11T07:06:14.781Z,5.25
2022-12-11T07:09:22.995Z,5.50
2022-12-11T07:12:26.252Z,5.75
2022-12-11T07:15:29.605Z,5.10
2022-12-11T07:18:34.894Z,5.07
2022-12-11T07:21:40.919Z,5.78
2022-12-11T07:24:44.799Z,4.70
2022-12-11T07:27:52.002Z,5.47
2022-12-11T07:31:01.889Z,5.00
2022-12-11T07:34:07.957Z,3.97
2022-12-11T07:37:12.143Z,4.40
2022-12-11T07:40:21.079Z,4.93
2022-12-11T07:43:26.223Z,4.60
2022-12-11T07:46:37.824Z,4.93
2022-12-11T07:49:49.476Z,4.47
2022-12-11T07:52:54.957Z,4.85
2022-12-11T07:56:00.159Z,4.50
2022-12-11T07:59:06.454Z,3.67
2022-12-11T08:02:12.100Z,4.03
2022-12-11T08:05:20.411Z,4.12
2022-12-11T08:08:31.986Z,4.18
2022-12-11T08:11:39.746Z,3.37
2022-12-11T08:14:45.198Z,3.53
2022-12-11T08:17:50.076Z,5.27
2022-12-11T08:20:57.583Z,4.82
2022-12-11T08:24:09.911Z,4.65
2022-12-11T08:27:15.353Z,4.35
2022-12-11T08:30:25.377Z,4.07
2022-12-11T08:33:31.146Z,4.47
2022-12-11T08:36:47.073Z,4.28
2022-12-11T08:39:51.312Z,3.90
2022-12-11T08:42:57.638Z,3.47
2022-12-11T08:46:07.767Z,3.80
2022-12-11T08:49:12.899Z,2.20
2022-12-11T08:52:23.092Z,3.37
2022-12-11T08:55:30.769Z,3.17
2022-12-11T08:58:43.495Z,3.15
2022-12-11T09:01:50.711Z,3.15
2022-12-11T09:04:57.971Z,2.90
2022-12-11T09:08:08.147Z,3.00
2022-12-11T09:11:33.551Z,3.30
2022-12-11T09:14:48.914Z,3.40
2022-12-11T09:17:53.655Z,3.47
2022-12-11T09:21:08.644Z,3.63
2022-12-11T09:24:14.559Z,2.72
2022-12-11T09:27:24.547Z,2.50
2022-12-11T09:30:42.619Z,3.00
2022-12-11T09:33:56.770Z,2.70
2022-12-11T09:37:12.620Z,2.60
2022-12-11T09:40:15.980Z,3.15
2022-12-11T09:43:37.836Z,3.20
2022-12-11T09:46:44.712Z,3.20
2022-12-11T09:50:08.726Z,3.67
2022-12-11T09:53:31.031Z,4.00
2022-12-11T09:56:58.114Z,2.78
2022-12-11T10:00:32.801Z,2.58
2022-12-11T10:03:50.608Z,2.55
2022-12-11T10:07:21.832Z,3.25
2022-12-11T10:10:51.854Z,3.80
2022-12-11T10:14:16.961Z,3.03
2022-12-11T10:17:29.159Z,3.15
2022-12-11T10:20:40.412Z,3.20
2022-12-11T10:23:51.755Z,3.55
2022-12-11T10:27:00.649Z,3.53
2022-12-11T10:30:17.725Z,3.67
2022-12-11T10:34:20.468Z,3.58
2022-12-11T10:37:29.590Z,4.00
2022-12-11T10:40:36.527Z,3.40
2022-12-11T10:43:56.573Z,3.50
2022-12-11T10:47:14.617Z,3.05
2022-12-11T10:50:28.640Z,4.03
2022-12-11T10:53:46.643Z,3.50
2022-12-11T10:56:54.606Z,3.08
2022-12-11T11:00:00.959Z,3.60
2022-12-11T11:03:08.047Z,3.53
2022-12-11T11:06:19.551Z,3.70
2022-12-11T11:09:54.530Z,3.28
2022-12-11T11:13:03.837Z,3.00
2022-12-11T11:16:16.620Z,3.40
2022-12-11T11:19:30.064Z,3.77
2022-12-11T11:22:41.602Z,3.30
2022-12-11T11:26:02.520Z,3.60
2022-12-11T11:29:27.041Z,3.50
2022-12-11T11:32:36.729Z,3.77
2022-12-11T11:35:52.882Z,3.57
2022-12-11T11:39:26.476Z,5.45
2022-12-11T11:42:49.088Z,6.15
2022-12-11T11:46:00.437Z,12.77
2022-12-11T11:49:21.021Z,6.57
2022-12-11T11:53:01.820Z,4.87
2022-12-11T11:56:24.782Z,4.70
2022-12-11T11:59:44.584Z,4.72
2022-12-11T12:03:06.499Z,3.37
2022-12-11T12:06:20.543Z,4.27
2022-12-11T12:09:49.621Z,8.60
2022-12-11T12:13:30.175Z,5.18
2022-12-11T12:16:53.011Z,4.62
2022-12-11T12:20:28.894Z,3.22
2022-12-11T12:23:37.565Z,4.53
2022-12-11T12:27:00.425Z,6.90
2022-12-11T12:30:23.326Z,7.93
2022-12-11T12:33:53.561Z,6.25
2022-12-11T12:37:31.674Z,6.15
2022-12-11T12:40:55.884Z,5.77
2022-12-11T12:44:24.781Z,22.65
2022-12-11T12:47:34.802Z,11.05
2022-12-11T12:50:53.850Z,5.30
2022-12-11T12:54:12.570Z,4.60
2022-12-11T12:57:25.460Z,4.40
2022-12-11T13:00:44.407Z,4.47
2022-12-11T13:03:57.587Z,4.97
2022-12-11T13:07:29.633Z,4.78
2022-12-11T13:10:54.889Z,4.40
2022-12-11T13:14:07.978Z,4.47
2022-12-11T13:17:21.515Z,5.15
2022-12-11T13:20:35.861Z,4.85
2022-12-11T13:23:41.338Z,4.55
2022-12-11T13:26:57.518Z,4.75
2022-12-11T13:30:15.475Z,5.50
2022-12-11T13:33:28.540Z,5.07
2022-12-11T13:36:41.570Z,5.00
2022-12-11T13:40:05.524Z,5.00
2022-12-11T13:43:21.780Z,5.05
2022-12-11T13:46:34.181Z,4.63
2022-12-11T13:50:09.413Z,3.77
2022-12-11T13:53:24.146Z,4.70
2022-12-11T13:56:35.619Z,3.65
2022-12-11T13:59:44.735Z,5.07
2022-12-11T14:02:52.117Z,5.50
2022-12-11T14:06:02.691Z,6.27
2022-12-11T14:09:09.745Z,4.93
2022-12-11T14:12:26.608Z,4.95
2022-12-11T14:15:35.610Z,5.45
2022-12-11T14:18:46.567Z,4.90
2022-12-11T14:22:11.104Z,5.12
2022-12-11T14:25:26.114Z,5.15
2022-12-11T14:28:45.452Z,5.12
2022-12-11T14:31:56.412Z,5.28
2022-12-11T14:35:18.233Z,5.27
2022-12-11T14:38:37.577Z,4.78
2022-12-11T14:41:49.098Z,6.07
2022-12-11T14:45:32.786Z,6.18
2022-12-11T14:49:08.563Z,5.62
2022-12-11T14:52:26.186Z,5.37
2022-12-11T14:55:38.657Z,5.53
2022-12-11T14:58:54.214Z,5.70
2022-12-11T15:02:32.674Z,5.20
2022-12-11T15:05:55.744Z,5.10
2022-12-11T15:09:18.602Z,6.60
2022-12-11T15:12:24.541Z,5.55
2022-12-11T15:15:30.724Z,6.12
2022-12-11T15:18:43.336Z,5.68
2022-12-11T15:21:48.274Z,5.78
2022-12-11T15:24:55.470Z,7.67
2022-12-11T15:28:08.896Z,11.68
2022-12-11T15:31:31.081Z,7.32
2022-12-11T15:35:04.485Z,7.40
2022-12-11T15:38:29.524Z,7.75
2022-12-11T15:41:34.927Z,7.07
2022-12-11T15:44:45.112Z,8.38
2022-12-11T15:47:59.578Z,7.28
2022-12-11T15:51:18.482Z,6.75
2022-12-11T15:54:30.590Z,11.12
2022-12-11T15:57:45.625Z,8.77
2022-12-11T16:00:53.508Z,9.60
2022-12-11T16:04:13.993Z,8.02
2022-12-11T16:07:26.518Z,6.95
2022-12-11T16:10:32.747Z,6.20
2022-12-11T16:13:43.539Z,6.37
2022-12-11T16:16:55.655Z,7.35
2022-12-11T16:20:11.473Z,7.03
2022-12-11T16:23:26.580Z,6.30
2022-12-11T16:26:36.091Z,6.00
2022-12-11T16:29:46.533Z,8.77
2022-12-11T16:33:04.807Z,5.85
2022-12-11T16:36:18.743Z,5.20
2022-12-11T16:39:35.584Z,5.57
2022-12-11T16:42:49.404Z,5.95
2022-12-11T16:45:59.638Z,5.53
2022-12-11T16:49:14.824Z,5.43
2022-12-11T16:52:27.539Z,8.82
2022-12-11T16:55:42.534Z,6.65
2022-12-11T16:58:53.710Z,6.40
2022-12-11T17:02:04.254Z,6.50
2022-12-11T17:05:16.884Z,6.85
2022-12-11T17:08:22.510Z,7.70
2022-12-11T17:11:38.387Z,9.40
2022-12-11T17:14:53.108Z,7.43
2022-12-11T17:18:01.084Z,8.50
2022-12-11T17:21:16.503Z,5.75
2022-12-11T17:24:28.495Z,6.62
2022-12-11T17:27:35.721Z,6.78
2022-12-11T17:30:45.678Z,9.20
2022-12-11T17:33:51.864Z,7.13
2022-12-11T17:37:09.465Z,7.35
2022-12-11T17:40:27.988Z,7.43
2022-12-11T17:43:36.942Z,5.95
2022-12-11T17:46:47.688Z,6.25
2022-12-11T17:49:55.130Z,7.73
2022-12-11T17:53:09.796Z,5.60
2022-12-11T17:56:21.590Z,6.57
2022-12-11T17:59:44.544Z,5.75
2022-12-11T18:02:56.516Z,6.50
2022-12-11T18:06:23.493Z,6.13
2022-12-11T18:09:36.452Z,6.07
2022-12-11T18:12:53.863Z,5.15
2022-12-11T18:16:14.666Z,6.07
2022-12-11T18:19:27.575Z,6.07
2022-12-11T18:22:37.556Z,5.33
2022-12-11T18:25:47.832Z,6.05
2022-12-11T18:29:07.022Z,6.07
2022-12-11T18:32:31.386Z,5.80
2022-12-11T18:35:44.432Z,5.75
2022-12-11T18:39:01.950Z,5.80
2022-12-11T18:42:33.436Z,4.72
2022-12-11T18:45:49.613Z,5.43
2022-12-11T18:49:00.378Z,6.10
2022-12-11T18:52:21.366Z,6.32
2022-12-11T18:55:28.954Z,5.77
2022-12-11T18:58:39.496Z,6.53
2022-12-11T19:01:52.509Z,6.05
2022-12-11T19:05:11.078Z,6.18
2022-12-11T19:08:18.747Z,5.93
2022-12-11T19:11:27.552Z,6.23
2022-12-11T19:14:42.437Z,6.12
2022-12-11T19:18:01.354Z,7.18
2022-12-11T19:21:14.466Z,7.40
2022-12-11T19:24:28.479Z,7.62
2022-12-11T19:27:35.711Z,7.83
2022-12-11T19:30:49.570Z,5.80
2022-12-11T19:33:56.835Z,8.27
2022-12-11T19:37:03.313Z,8.57
2022-12-11T19:40:15.472Z,7.43
2022-12-11T19:43:26.107Z,8.70
2022-12-11T19:46:39.601Z,7.68
2022-12-11T19:49:51.461Z,9.80
2022-12-11T19:53:00.669Z,8.10
2022-12-11T19:56:11.354Z,8.43
2022-12-11T19:59:18.270Z,8.00
2022-12-11T20:02:24.587Z,7.55
2022-12-11T20:05:42.520Z,8.77
2022-12-11T20:08:50.571Z,8.50
2022-12-11T20:11:58.100Z,9.43
2022-12-11T20:15:11.784Z,9.10
2022-12-11T20:18:23.552Z,9.23
2022-12-11T20:21:35.440Z,8.82
2022-12-11T20:24:42.762Z,9.27
2022-12-11T20:27:52.006Z,8.90
2022-12-11T20:31:20.677Z,8.73
2022-12-11T20:34:38.233Z,6.80
2022-12-11T20:37:54.410Z,8.25
2022-12-11T20:40:59.748Z,8.02
2022-12-11T20:44:13.479Z,8.33
2022-12-11T20:47:23.481Z,8.43
2022-12-11T20:50:30.068Z,8.15
2022-12-11T20:53:46.371Z,8.25
2022-12-11T20:56:58.416Z,8.23
2022-12-11T21:00:11.792Z,8.07
2022-12-11T21:03:21.823Z,7.72
2022-12-11T21:06:38.880Z,8.48
2022-12-11T21:09:43.454Z,7.78
2022-12-11T21:12:52.850Z,7.15
2022-12-11T21:15:57.436Z,7.73
2022-12-11T21:19:05.516Z,7.85
2022-12-11T21:22:09.239Z,8.20
2022-12-11T21:25:19.003Z,7.55
2022-12-11T21:28:34.949Z,8.65
2022-12-11T21:31:40.452Z,8.80
2022-12-11T21:34:51.337Z,9.55
2022-12-11T21:38:02.451Z,8.60
2022-12-11T21:41:10.707Z,8.70
2022-12-11T21:47:42.598Z,6.47
2022-12-11T21:50:46.683Z,7.28
2022-12-11T21:53:53.132Z,8.63
2022-12-11T21:56:57.479Z,6.87
2022-12-11T22:00:17.315Z,7.77
2022-12-11T22:03:26.513Z,7.70
2022-12-11T22:06:30.470Z,7.20
2022-12-11T22:09:34.668Z,7.97
2022-12-11T22:12:39.496Z,7.22
2022-12-11T22:15:47.221Z,7.67
2022-12-11T22:18:53.988Z,8.05
2022-12-11T22:21:58.124Z,8.48
2022-12-11T22:25:08.779Z,8.40
2022-12-11T22:28:20.373Z,8.07
2022-12-11T22:31:26.820Z,7.70
2022-12-11T22:34:33.619Z,8.55
2022-12-11T22:37:46.502Z,8.40
2022-12-11T22:40:55.400Z,7.75
2022-12-11T22:43:58.833Z,7.97
2022-12-11T22:47:01.857Z,8.60
2022-12-11T22:50:06.473Z,8.60
2022-12-11T22:53:10.824Z,7.40
2022-12-11T22:56:13.911Z,8.02
2022-12-11T22:59:17.632Z,8.35
2022-12-11T23:02:22.389Z,8.20
2022-12-11T23:05:25.976Z,7.68
2022-12-11T23:08:28.750Z,7.40
2022-12-11T23:11:36.472Z,5.97
2022-12-11T23:14:39.589Z,7.15
2022-12-11T23:17:43.683Z,6.65
2022-12-11T23:20:49.578Z,7.05
2022-12-11T23:23:54.059Z,7.03
2022-12-11T23:26:59.954Z,7.37
2022-12-11T23:30:05.590Z,7.57
2022-12-11T23:33:08.512Z,7.43
2022-12-11T23:36:12.175Z,7.07
2022-12-11T23:39:14.957Z,7.07
2022-12-11T23:42:17.754Z,7.20
2022-12-11T23:45:21.191Z,7.03
2022-12-11T23:48:24.729Z,6.57
2022-12-11T23:51:31.614Z,6.72
2022-12-11T23:54:34.407Z,6.68
2022-12-11T23:57:37.076Z,7.15
